Time;durP1;ratioP1;P1;durP2;ratioP2;P2;SDS_P1;SDS_P2;PMS_P1;PMS_P2;Temp;Humidity;BMP_temperature;BMP_pressure;BME280_temperature;BME280_humidity;BME280_pressure;Samples;Min_cycle;Max_cycle;Signal;HPM_P1;HPM_P2
2023/06/15 00:02:11;;;;;;;4.63;3.78;;;;;;;19.02;71.73;99164.81;5001303;28;20061;-87
2023/06/15 00:04:38;;;;;;;6.13;4.18;;;;;;;19.17;71.41;99169.72;4969857;28;20026;-87
2023/06/15 00:07:04;;;;;;;5.10;3.78;;;;;;;19.14;71.14;99161.38;4970039;28;20032;-87
2023/06/15 00:09:30;;;;;;;6.00;4.47;;;;;;;19.05;71.19;99157.88;4986304;28;20030;-87
2023/06/15 00:11:56;;;;;;;8.95;3.92;;;;;;;19.21;70.86;99169.84;4969362;28;20484;-87
2023/06/15 00:14:21;;;;;;;5.30;4.20;;;;;;;19.07;71.57;99158.34;5001572;28;20032;-87
2023/06/15 00:16:47;;;;;;;4.95;4.13;;;;;;;19.00;71.58;99164.34;4969149;28;20136;-87
2023/06/15 00:19:13;;;;;;;5.22;4.07;;;;;;;19.03;71.79;99163.69;4993791;28;20026;-87
2023/06/15 00:21:41;;;;;;;6.55;4.05;;;;;;;19.01;72.07;99155.03;4973869;28;20041;-87
2023/06/15 00:24:10;;;;;;;5.32;4.07;;;;;;;18.98;72.15;99161.13;4999301;28;20026;-87
2023/06/15 00:26:36;;;;;;;4.70;3.80;;;;;;;19.02;71.96;99164.81;4978103;28;20503;-87
2023/06/15 00:29:01;;;;;;;4.93;4.22;;;;;;;19.10;71.89;99176.81;4969710;28;20017;-87
2023/06/15 00:31:27;;;;;;;8.70;4.38;;;;;;;18.98;71.85;99158.41;4969039;28;20067;-87
2023/06/15 00:33:53;;;;;;;9.52;4.00;;;;;;;18.91;72.33;99158.94;4970244;28;20030;-87
2023/06/15 00:36:18;;;;;;;6.40;4.38;;;;;;;18.92;72.54;99159.72;4984446;28;20030;-87
2023/06/15 00:38:44;;;;;;;5.50;4.38;;;;;;;18.92;72.64;99162.47;4969045;28;20034;-87
2023/06/15 00:41:09;;;;;;;8.02;4.20;;;;;;;18.84;72.72;99152.38;4969266;28;20096;-87
2023/06/15 00:43:35;;;;;;;5.45;3.65;;;;;;;18.89;72.88;99163.13;4977142;28;20022;-87
2023/06/15 00:46:04;;;;;;;9.32;4.15;;;;;;;18.87;72.61;99152.53;4985712;28;20026;-87
2023/06/15 00:48:30;;;;;;;6.07;3.92;;;;;;;18.87;72.64;99146.28;4968426;28;20422;-87
2023/06/15 00:50:55;;;;;;;7.57;4.10;;;;;;;18.91;72.63;99164.41;4968967;28;20030;-87
2023/06/15 00:53:21;;;;;;;7.28;3.83;;;;;;;18.91;72.33;99155.41;4985360;28;20030;-87
2023/06/15 00:55:48;;;;;;;5.28;4.18;;;;;;;18.94;72.32;99160.19;4969079;28;20029;-86
2023/06/15 00:58:13;;;;;;;5.13;3.53;;;;;;;18.99;72.08;99149.13;4967998;28;20106;-87
2023/06/15 01:00:39;;;;;;;7.20;3.88;;;;;;;19.07;71.94;99161.09;4969658;28;20512;-87
2023/06/15 01:03:04;;;;;;;6.38;4.00;;;;;;;18.96;72.20;99147.03;4968308;28;20026;-87
2023/06/15 01:05:34;;;;;;;7.05;3.97;;;;;;;18.92;72.19;99141.41;4968510;28;20146;-87
2023/06/15 01:08:02;;;;;;;7.75;4.40;;;;;;;18.94;72.18;99136.44;4970684;28;20029;-87
2023/06/15 01:10:30;;;;;;;5.78;4.22;;;;;;;18.92;72.04;99135.97;4969042;28;20506;-87
2023/06/15 01:12:57;;;;;;;4.32;3.85;;;;;;;19.01;72.15;99149.59;4969725;28;20042;-87
2023/06/15 01:15:22;;;;;;;6.30;4.10;;;;;;;18.95;72.73;99143.50;4969200;28;20025;-87
2023/06/15 01:17:53;;;;;;;5.47;4.22;;;;;;;18.90;72.81;99140.16;4968502;28;20069;-87
2023/06/15 01:20:24;;;;;;;6.10;4.18;;;;;;;18.90;72.94;99137.44;4970361;28;20113;-87
2023/06/15 01:22:58;;;;;;;7.18;4.03;;;;;;;18.96;72.67;99136.13;4970227;28;20485;-87
2023/06/15 01:25:45;;;;;;;6.90;4.07;;;;;;;18.84;72.94;99131.34;4984282;28;20037;-87
2023/06/15 01:28:12;;;;;;;7.40;4.55;;;;;;;18.90;72.29;99138.22;4985126;28;20381;-87
2023/06/15 01:30:42;;;;;;;7.75;4.40;;;;;;;18.97;72.09;99135.00;4968882;28;20113;-87
2023/06/15 01:33:08;;;;;;;7.22;4.72;;;;;;;18.92;71.95;99135.16;4968040;28;20033;-87
2023/06/15 01:35:34;;;;;;;10.50;4.50;;;;;;;18.94;72.26;99127.47;4968852;28;20492;-87
2023/06/15 01:37:59;;;;;;;6.57;4.85;;;;;;;18.97;72.12;99124.09;4967375;28;20053;-88
2023/06/15 01:40:25;;;;;;;6.25;4.57;;;;;;;18.91;71.82;99125.41;4967519;28;20018;-87
2023/06/15 01:42:50;;;;;;;4.47;3.75;;;;;;;18.92;71.95;99113.34;4968309;28;20017;-87
2023/06/15 01:45:16;;;;;;;5.90;4.00;;;;;;;19.21;71.21;99128.09;4967822;28;20053;-87
2023/06/15 01:47:42;;;;;;;4.68;3.90;;;;;;;19.30;70.52;99123.34;4968065;28;20503;-87
2023/06/15 01:50:07;;;;;;;5.90;3.95;;;;;;;19.30;70.52;99110.53;4984243;28;20052;-87
2023/06/15 01:52:33;;;;;;;5.75;3.72;;;;;;;19.38;70.10;99117.03;4983603;28;20025;-87
2023/06/15 01:54:58;;;;;;;4.88;3.80;;;;;;;19.45;69.95;99116.53;4967886;28;20116;-87
2023/06/15 01:57:24;;;;;;;4.55;3.72;;;;;;;19.53;69.27;99116.44;4984464;28;20018;-87
2023/06/15 01:59:51;;;;;;;5.30;3.65;;;;;;;19.64;69.10;99126.97;4996420;28;20090;-87
2023/06/15 02:02:16;;;;;;;7.68;4.00;;;;;;;19.53;70.23;99132.03;4981216;28;20033;-88
2023/06/15 02:04:42;;;;;;;6.65;3.80;;;;;;;19.43;70.70;99121.50;4975661;28;20506;-87
2023/06/15 02:07:07;;;;;;;5.57;4.45;;;;;;;19.29;71.34;99127.22;4987059;28;20026;-87
2023/06/15 02:09:33;;;;;;;6.22;4.22;;;;;;;19.24;71.51;99135.63;5002796;28;20029;-88
2023/06/15 02:11:58;;;;;;;5.35;3.60;;;;;;;19.12;72.33;99122.69;4986238;28;20125;-88
2023/06/15 02:14:24;;;;;;;6.47;4.25;;;;;;;19.12;72.19;99134.41;4986430;28;20028;-88
2023/06/15 02:16:49;;;;;;;7.82;4.03;;;;;;;19.08;72.84;99143.59;4986367;28;20017;-88
2023/06/15 02:19:20;;;;;;;5.80;4.13;;;;;;;19.03;72.47;99128.22;4986761;28;20026;-88
2023/06/15 02:21:49;;;;;;;6.35;4.03;;;;;;;19.00;72.68;99130.81;4988386;28;20091;-87
2023/06/15 02:24:15;;;;;;;5.18;3.75;;;;;;;19.07;72.51;99133.78;5001949;28;20501;-85
2023/06/15 02:26:40;;;;;;;11.93;4.05;;;;;;;18.94;73.00;99125.53;4986373;28;20029;-86
2023/06/15 02:29:06;;;;;;;5.90;4.05;;;;;;;18.95;72.96;99129.06;5003370;28;20479;-86
2023/06/15 02:31:31;;;;;;;7.07;4.10;;;;;;;18.95;72.84;99129.06;4986374;28;20032;-87
2023/06/15 02:33:57;;;;;;;7.32;3.80;;;;;;;18.91;72.92;99122.69;4987234;28;20032;-86
2023/06/15 02:36:22;;;;;;;7.45;4.15;;;;;;;18.92;72.93;99116.88;4986578;28;20001;-86
2023/06/15 02:38:48;;;;;;;9.38;4.00;;;;;;;18.82;73.06;99109.06;4979403;28;20018;-87
2023/06/15 02:41:14;;;;;;;5.63;4.03;;;;;;;18.85;73.14;99116.59;4978073;28;20021;-87
2023/06/15 02:43:40;;;;;;;6.95;4.15;;;;;;;18.96;72.77;99125.19;4978793;28;20510;-86
2023/06/15 02:46:05;;;;;;;6.35;4.25;;;;;;;18.99;72.78;99124.56;4974986;28;20435;-87
2023/06/15 02:48:30;;;;;;;4.43;3.83;;;;;;;18.88;73.19;99115.94;4978790;28;20033;-86
2023/06/15 02:50:56;;;;;;;6.90;3.97;;;;;;;18.95;72.68;99112.69;4978767;28;20033;-87
2023/06/15 02:53:22;;;;;;;5.63;3.90;;;;;;;18.86;72.97;99123.63;5002280;28;20025;-87
2023/06/15 02:55:48;;;;;;;11.23;4.72;;;;;;;18.92;73.03;99121.53;4985350;28;20053;-87
2023/06/15 02:58:13;;;;;;;6.40;4.30;;;;;;;18.93;73.04;99117.69;4985085;28;20029;-87
2023/06/15 03:00:40;;;;;;;5.68;3.80;;;;;;;18.87;73.26;99124.47;4986552;28;20076;-87
2023/06/15 03:03:07;;;;;;;8.98;4.13;;;;;;;18.97;73.01;99127.59;5002588;28;20545;-87
2023/06/15 03:05:33;;;;;;;5.53;4.30;;;;;;;18.96;73.25;99131.44;5002758;28;20045;-87
2023/06/15 03:07:58;;;;;;;7.15;3.47;;;;;;;19.01;73.13;99132.38;4984962;28;20026;-87
2023/06/15 03:10:24;;;;;;;6.13;3.85;;;;;;;18.96;73.47;99122.47;5000663;28;20028;-87
2023/06/15 03:12:49;;;;;;;5.03;4.07;;;;;;;18.97;73.35;99124.09;5002372;28;20029;-87
2023/06/15 03:15:16;;;;;;;9.25;3.80;;;;;;;18.89;73.30;99114.81;4985751;28;20033;-87
2023/06/15 03:17:42;;;;;;;5.93;4.13;;;;;;;18.96;73.24;99119.75;4972549;28;20488;-86
2023/06/15 03:20:10;;;;;;;8.00;3.85;;;;;;;19.04;73.12;99126.28;4973148;28;20026;-87
2023/06/15 03:22:36;;;;;;;10.88;4.50;;;;;;;19.06;72.60;99124.03;4972277;28;20129;-87
2023/06/15 03:25:03;;;;;;;7.93;4.20;;;;;;;19.14;72.76;99132.16;4987003;28;20030;-87
2023/06/15 03:27:29;;;;;;;6.75;4.13;;;;;;;19.25;72.44;99131.75;4988084;28;20050;-86
2023/06/15 03:29:56;;;;;;;7.00;3.88;;;;;;;19.23;72.58;99120.38;4978680;28;20033;-87
2023/06/15 03:32:22;;;;;;;5.68;3.63;;;;;;;19.27;72.40;99124.81;4990696;28;20083;-87
2023/06/15 03:34:47;;;;;;;6.70;3.70;;;;;;;19.37;72.14;99124.44;4977113;28;20488;-88
2023/06/15 03:37:13;;;;;;;8.68;4.13;;;;;;;19.46;71.72;99116.16;4985355;28;20029;-88
2023/06/15 03:39:38;;;;;;;8.57;4.68;;;;;;;19.44;71.59;99112.97;4979597;28;20491;-88
2023/06/15 03:42:05;;;;;;;4.53;3.50;;;;;;;19.46;71.73;99118.91;4973038;28;20504;-88
2023/06/15 03:44:30;;;;;;;6.82;3.97;;;;;;;19.48;71.44;99118.56;4971928;28;20400;-88
2023/06/15 03:46:56;;;;;;;10.05;3.88;;;;;;;19.43;71.69;99118.78;4993278;28;20036;-90
2023/06/15 03:49:21;;;;;;;7.70;4.80;;;;;;;19.50;71.64;99117.09;4971014;28;20038;-89
2023/06/15 03:51:48;;;;;;;8.82;4.07;;;;;;;19.70;71.17;99129.19;4979804;28;20033;-88
2023/06/15 03:54:13;;;;;;;6.72;3.67;;;;;;;19.66;71.32;99117.28;4995223;28;20032;-88
2023/06/15 03:56:39;;;;;;;6.22;3.92;;;;;;;19.74;70.76;99132.03;4985053;28;20441;-89
2023/06/15 03:59:05;;;;;;;8.68;4.85;;;;;;;19.61;71.40;99113.97;4968858;28;20120;-89
2023/06/15 04:01:30;;;;;;;7.47;4.28;;;;;;;19.65;71.39;99110.25;4985681;28;20049;-89
2023/06/15 04:03:59;;;;;;;6.88;3.95;;;;;;;19.74;70.90;99115.66;4972280;28;20026;-90
2023/06/15 04:06:25;;;;;;;10.68;4.43;;;;;;;19.81;70.39;99124.09;4980361;28;20499;-89
2023/06/15 04:08:50;;;;;;;10.25;4.57;;;;;;;19.86;70.94;99123.91;4981935;28;20029;-89
2023/06/15 04:11:16;;;;;;;10.93;4.85;;;;;;;19.85;71.18;99118.75;4981941;28;20036;-89
2023/06/15 04:13:42;;;;;;;9.68;4.70;;;;;;;20.01;70.26;99132.59;5002767;28;20573;-91
2023/06/15 04:16:07;;;;;;;6.30;4.43;;;;;;;20.15;69.41;99124.84;4974980;28;20091;-89
2023/06/15 04:18:33;;;;;;;8.80;4.45;;;;;;;20.19;69.43;99125.78;4974071;28;20037;-90
2023/06/15 04:20:58;;;;;;;5.55;4.65;;;;;;;20.28;69.42;99129.22;4978487;28;20025;-90
2023/06/15 04:23:27;;;;;;;9.05;4.97;;;;;;;20.42;69.05;99134.38;4987965;28;20088;-90
2023/06/15 04:25:53;;;;;;;9.13;4.80;;;;;;;20.53;68.55;99123.78;4971835;28;20030;-90
2023/06/15 04:28:20;;;;;;;9.68;4.97;;;;;;;20.70;67.55;99134.53;4986728;28;20022;-90
2023/06/15 04:30:52;;;;;;;10.93;4.90;;;;;;;20.70;66.95;99123.59;4985227;28;20022;-90
2023/06/15 04:33:19;;;;;;;12.25;5.53;;;;;;;20.83;67.03;99143.53;4992428;28;20102;-88
2023/06/15 04:35:47;;;;;;;13.45;4.88;;;;;;;20.78;66.69;99130.88;4971943;28;20112;-87
2023/06/15 04:38:13;;;;;;;10.45;4.63;;;;;;;20.92;65.85;99119.59;4968277;28;20104;-88
2023/06/15 04:40:41;;;;;;;10.55;5.38;;;;;;;21.06;66.17;99132.91;4968781;28;20470;-88
2023/06/15 04:43:10;;;;;;;8.80;5.07;;;;;;;21.31;64.81;99139.16;4973279;28;20479;-90
2023/06/15 04:46:08;;;;;;;10.30;4.97;;;;;;;21.33;65.14;99138.78;4970954;28;20488;-89
2023/06/15 04:48:34;;;;;;;13.82;5.50;;;;;;;21.37;64.92;99145.19;5006566;28;20129;-89
2023/06/15 04:50:59;;;;;;;11.00;5.25;;;;;;;21.47;64.75;99138.47;4989710;28;20045;-87
2023/06/15 04:53:24;;;;;;;12.60;5.55;;;;;;;21.53;64.22;99131.59;4987644;28;20040;-87
2023/06/15 04:55:50;;;;;;;9.30;5.65;;;;;;;21.55;63.46;99132.03;4975680;28;20025;-89
2023/06/15 04:58:17;;;;;;;15.38;6.18;;;;;;;21.59;63.64;99130.19;4958771;28;20044;-88
2023/06/15 05:00:42;;;;;;;8.55;5.03;;;;;;;21.65;63.70;99137.03;4964425;28;20681;-89
2023/06/15 05:03:08;;;;;;;20.00;5.20;;;;;;;21.78;63.17;99126.81;4968318;28;20037;-88
2023/06/15 05:05:34;;;;;;;12.52;5.13;;;;;;;21.98;62.03;99142.25;4956678;28;20060;-88
2023/06/15 05:07:59;;;;;;;9.18;4.00;;;;;;;21.99;60.88;99134.81;4974070;28;20042;-89
2023/06/15 05:10:25;;;;;;;8.73;4.70;;;;;;;22.06;60.41;99137.75;4979632;28;20472;-88
2023/06/15 05:12:51;;;;;;;11.43;4.15;;;;;;;21.94;62.03;99135.88;4994209;28;20029;-87
2023/06/15 05:15:17;;;;;;;10.82;4.78;;;;;;;21.97;61.32;99137.91;4993058;28;20037;-85
2023/06/15 05:17:43;;;;;;;8.68;4.72;;;;;;;22.08;61.81;99137.38;4969139;28;20491;-87
2023/06/15 05:20:09;;;;;;;13.90;5.57;;;;;;;22.11;61.55;99150.41;4969497;28;20037;-86
2023/06/15 05:22:35;;;;;;;7.80;4.80;;;;;;;22.12;61.13;99139.09;4979844;28;20029;-88
2023/06/15 05:25:02;;;;;;;10.68;3.97;;;;;;;22.25;60.71;99139.84;4980125;28;20428;-87
2023/06/15 05:27:28;;;;;;;9.13;4.18;;;;;;;22.33;60.64;99146.28;4978963;28;20420;-86
2023/06/15 05:29:55;;;;;;;8.10;3.28;;;;;;;22.49;59.56;99147.09;4994400;28;20466;-88
2023/06/15 05:32:21;;;;;;;11.35;3.42;;;;;;;22.61;59.21;99146.22;4989907;28;20036;-88
2023/06/15 05:34:47;;;;;;;6.15;3.75;;;;;;;22.65;59.39;99147.13;4985780;28;20022;-89
2023/06/15 05:37:17;;;;;;;8.68;5.90;;;;;;;22.71;58.07;99137.47;4998079;28;20041;-90
2023/06/15 05:39:44;;;;;;;16.83;3.50;;;;;;;22.79;58.05;99149.41;4980909;28;20515;-87
2023/06/15 05:42:09;;;;;;;6.05;3.45;;;;;;;22.80;57.32;99132.56;4990447;28;20056;-87
2023/06/15 05:44:35;;;;;;;9.88;3.20;;;;;;;22.98;56.60;99149.47;4978809;28;20025;-87
2023/06/15 05:47:00;;;;;;;8.70;3.33;;;;;;;22.94;56.05;99129.38;4970248;28;20029;-88
2023/06/15 05:49:26;;;;;;;8.90;5.97;;;;;;;22.99;55.26;99150.25;4986596;28;20034;-88
2023/06/15 05:51:52;;;;;;;3.53;2.80;;;;;;;23.04;55.80;99151.97;4968895;28;20052;-89
2023/06/15 05:54:18;;;;;;;7.40;2.83;;;;;;;23.24;55.45;99141.81;4970016;28;20029;-87
2023/06/15 05:56:44;;;;;;;4.45;2.97;;;;;;;23.35;55.02;99154.63;4980128;28;20029;-87
2023/06/15 05:59:10;;;;;;;4.30;3.08;;;;;;;23.37;55.55;99146.03;4985558;28;20068;-89
2023/06/15 06:01:36;;;;;;;5.65;2.70;;;;;;;23.27;55.15;99141.09;4979020;28;20054;-89
2023/06/15 06:04:02;;;;;;;6.60;3.70;;;;;;;23.33;54.88;99142.41;4971409;28;20061;-90
2023/06/15 06:06:27;;;;;;;4.88;3.38;;;;;;;23.45;55.11;99144.22;4971195;28;20032;-88
2023/06/15 06:08:52;;;;;;;3.55;2.50;;;;;;;23.53;53.88;99135.78;4987327;28;20025;-88
2023/06/15 06:11:18;;;;;;;3.78;2.60;;;;;;;23.77;52.99;99136.66;4985740;28;20079;-88
2023/06/15 06:13:44;;;;;;;4.63;3.20;;;;;;;23.91;52.76;99136.16;4969375;28;20036;-88
2023/06/15 06:16:09;;;;;;;9.38;5.80;;;;;;;23.99;52.69;99146.94;4968504;28;20432;-87
2023/06/15 06:18:35;;;;;;;4.97;2.75;;;;;;;24.05;51.92;99133.69;4970144;28;20022;-91
2023/06/15 06:21:00;;;;;;;12.80;4.70;;;;;;;24.14;52.78;99136.19;4970940;28;20049;-88
2023/06/15 06:23:26;;;;;;;6.65;4.28;;;;;;;24.26;52.04;99127.75;4970545;28;20045;-90
2023/06/15 06:25:51;;;;;;;4.22;2.40;;;;;;;24.44;50.58;99136.31;4970218;28;20091;-89
2023/06/15 06:28:17;;;;;;;6.45;3.30;;;;;;;24.49;50.98;99122.28;4977186;28;20033;-91
2023/06/15 06:30:43;;;;;;;7.80;4.50;;;;;;;24.70;50.37;99138.34;4972463;28;20028;-89
2023/06/15 06:33:08;;;;;;;4.88;2.83;;;;;;;24.74;49.57;99111.66;4981354;28;20021;-91
2023/06/15 06:35:34;;;;;;;4.07;2.88;;;;;;;24.78;50.49;99123.53;4994315;28;20022;-88
2023/06/15 06:37:59;;;;;;;5.90;3.33;;;;;;;24.77;50.11;99123.88;4970328;28;20033;-88
2023/06/15 06:40:27;;;;;;;4.68;2.88;;;;;;;24.73;50.01;99137.59;4976269;28;20029;-88
2023/06/15 06:42:53;;;;;;;5.85;3.33;;;;;;;24.70;50.88;99127.34;4993653;28;20459;-87
2023/06/15 06:45:19;;;;;;;5.72;3.15;;;;;;;24.72;49.79;99119.50;4972555;28;20030;-89
2023/06/15 06:47:51;;;;;;;3.63;2.65;;;;;;;24.81;49.53;99141.25;4972874;28;20053;-90
2023/06/15 06:50:17;;;;;;;7.45;6.45;;;;;;;24.91;49.67;99128.84;4990518;28;20044;-88
2023/06/15 06:52:51;;;;;;;55.13;36.70;;;;;;;24.95;49.83;99119.44;4980738;28;20535;-89
2023/06/15 06:55:18;;;;;;;11.48;4.70;;;;;;;25.09;48.91;99129.88;4985934;28;20052;-90
2023/06/15 06:57:43;;;;;;;10.98;2.90;;;;;;;25.16;49.06;99116.19;4988994;28;20104;-89
2023/06/15 07:00:13;;;;;;;12.07;6.15;;;;;;;25.41;49.03;99135.06;4993458;28;20037;-88
2023/06/15 07:02:41;;;;;;;9.25;4.47;;;;;;;25.47;48.09;99133.56;4992983;28;20551;-90
2023/06/15 07:05:08;;;;;;;9.95;4.32;;;;;;;25.49;46.64;99138.72;4982949;28;20033;-90
2023/06/15 07:07:42;;;;;;;14.57;7.50;;;;;;;25.40;47.81;99111.41;5001486;28;20033;-92
2023/06/15 07:10:07;;;;;;;18.15;6.35;;;;;;;25.56;48.19;99131.31;4992254;28;20515;-89
2023/06/15 07:12:33;;;;;;;8.85;3.20;;;;;;;25.65;47.69;99130.22;4975709;28;20014;-91
2023/06/15 07:15:00;;;;;;;8.20;4.00;;;;;;;25.75;47.15;99127.59;4993686;28;20032;-91
2023/06/15 07:17:28;;;;;;;8.88;5.88;;;;;;;25.81;46.73;99119.78;4991401;28;20121;-92
2023/06/15 07:19:55;;;;;;;9.77;5.45;;;;;;;25.87;46.29;99121.03;4997055;28;20025;-88
2023/06/15 07:22:28;;;;;;;21.17;11.93;;;;;;;25.91;46.88;99102.56;4974483;28;20105;-90
2023/06/15 07:25:02;;;;;;;9.07;3.70;;;;;;;26.15;45.75;99103.22;4970967;28;20036;-94
2023/06/15 07:27:28;;;;;;;5.72;2.72;;;;;;;26.39;44.72;99118.41;5011032;28;20017;-96
2023/06/15 07:29:54;;;;;;;4.45;2.70;;;;;;;26.37;45.04;99109.69;4989796;28;20025;-95
2023/06/15 07:32:32;;;;;;;2.92;2.40;;;;;;;26.35;44.15;99099.03;5019947;28;20041;-95
2023/06/15 07:35:24;;;;;;;15.77;12.38;;;;;;;26.45;44.36;99116.88;4998595;28;20030;-95
2023/06/15 07:37:57;;;;;;;11.68;6.28;;;;;;;26.55;43.99;99131.94;4978316;28;20038;-95
2023/06/15 07:40:22;;;;;;;15.48;5.93;;;;;;;26.56;43.82;99115.00;4975963;28;20061;-93
2023/06/15 07:42:48;;;;;;;34.28;27.40;;;;;;;26.58;42.58;99117.41;4954210;28;20022;-92
2023/06/15 07:45:19;;;;;;;8.63;6.00;;;;;;;26.59;43.01;99105.19;4967844;28;20121;-94
2023/06/15 07:47:45;;;;;;;14.93;12.57;;;;;;;26.73;43.56;99099.78;4985390;28;20129;-92
2023/06/15 07:50:10;;;;;;;6.20;3.17;;;;;;;26.72;43.13;99102.91;4961761;28;20030;-92
2023/06/15 07:52:36;;;;;;;4.22;2.55;;;;;;;26.94;41.84;99120.44;4989643;28;20082;-92
2023/06/15 07:58:50;;;;;;;4.25;2.38;;;;;;;27.09;41.95;99116.56;5014092;28;20487;-94
2023/06/15 08:01:17;;;;;;;7.93;4.18;;;;;;;27.11;42.67;99100.38;5009380;28;20121;-95
2023/06/15 08:03:42;;;;;;;5.32;2.60;;;;;;;27.17;42.27;99098.06;4969056;28;20026;-95
2023/06/15 08:06:08;;;;;;;18.42;12.63;;;;;;;26.98;42.84;99097.16;4967077;28;20034;-96
2023/06/15 08:08:33;;;;;;;6.95;4.82;;;;;;;27.13;43.75;99094.47;4953726;28;20452;-95
2023/06/15 08:11:05;;;;;;;4.05;2.85;;;;;;;27.33;42.46;99087.50;4956891;28;20030;-95
2023/06/15 08:13:57;;;;;;;4.68;2.80;;;;;;;27.35;42.49;99100.91;4978271;28;20595;-92
2023/06/15 08:16:31;;;;;;;4.10;2.63;;;;;;;27.28;42.84;99076.00;4975137;28;20033;-90
2023/06/15 08:19:00;;;;;;;4.45;2.35;;;;;;;27.50;41.91;99074.91;4987105;28;20025;-94
2023/06/15 08:21:26;;;;;;;4.30;2.78;;;;;;;27.61;42.44;99084.03;4996524;28;20036;-93
2023/06/15 08:23:54;;;;;;;4.32;3.10;;;;;;;27.60;42.16;99076.94;4987449;28;20038;-93
2023/06/15 08:26:22;;;;;;;67.63;52.05;;;;;;;27.58;42.71;99076.53;5172131;23;20112;-92
2023/06/15 08:29:30;;;;;;;6.57;4.63;;;;;;;27.83;42.07;99086.88;5010111;28;20052;-90
2023/06/15 08:33:11;;;;;;;42.75;5.13;;;;;;;27.97;41.52;99064.78;5043074;28;20064;-87
2023/06/15 08:36:11;;;;;;;6.30;2.80;;;;;;;28.38;40.85;99096.84;4994641;28;20106;-89
2023/06/15 08:38:36;;;;;;;7.90;4.47;;;;;;;28.26;40.80;99067.56;4986469;28;20118;-89
2023/06/15 08:41:19;;;;;;;4.57;2.50;;;;;;;28.41;39.39;99096.84;4981966;28;20067;-88
2023/06/15 08:43:56;;;;;;;5.40;2.78;;;;;;;28.28;40.81;99087.34;4951706;28;20031;-87
2023/06/15 08:46:32;;;;;;;3.50;2.58;;;;;;;27.93;42.23;99077.00;4969201;28;20038;-87
2023/06/15 08:49:20;;;;;;;6.78;2.70;;;;;;;28.11;41.36;99086.13;4975380;28;20043;-87
2023/06/15 08:51:51;;;;;;;6.47;4.80;;;;;;;28.23;40.31;99081.41;4965221;29;20478;-86
2023/06/15 08:54:18;;;;;;;3.35;2.70;;;;;;;28.21;40.46;99077.06;4932806;28;20422;-88
2023/06/15 08:56:46;;;;;;;7.65;6.22;;;;;;;28.31;41.22;99083.00;4938260;28;20058;-88
2023/06/15 08:59:11;;;;;;;3.60;2.40;;;;;;;28.24;41.08;99078.22;4940615;28;20037;-89
2023/06/15 09:01:39;;;;;;;14.02;6.18;;;;;;;28.23;40.84;99073.13;4950487;28;20094;-91
2023/06/15 09:04:05;;;;;;;6.50;3.15;;;;;;;28.18;40.62;99075.09;4972250;28;20046;-90
2023/06/15 09:06:30;;;;;;;6.00;2.90;;;;;;;28.42;39.57;99079.03;4981211;28;20463;-90
2023/06/15 09:08:56;;;;;;;6.57;2.85;;;;;;;28.58;40.14;99075.09;4989221;28;20110;-93
2023/06/15 09:11:22;;;;;;;8.30;3.40;;;;;;;28.81;40.06;99080.22;4988077;28;20038;-91
2023/06/15 09:13:57;;;;;;;5.72;3.05;;;;;;;28.96;37.36;99075.44;4985303;28;20022;-88
2023/06/15 09:16:22;;;;;;;4.30;2.72;;;;;;;28.97;37.92;99066.72;4989845;28;20025;-93
2023/06/15 09:18:51;;;;;;;3.50;2.47;;;;;;;29.14;39.07;99087.28;4979374;28;20026;-88
2023/06/15 09:21:17;;;;;;;7.60;3.08;;;;;;;28.99;38.60;99080.16;4955523;28;20543;-88
2023/06/15 09:23:46;;;;;;;7.53;3.30;;;;;;;29.06;39.57;99071.84;5020295;28;20392;-90
2023/06/15 09:26:28;;;;;;;5.30;2.92;;;;;;;29.38;38.35;99077.28;5029669;28;20507;-88
2023/06/15 09:28:57;;;;;;;5.10;2.88;;;;;;;29.38;37.49;99074.50;5036038;28;20435;-90
2023/06/15 09:31:33;;;;;;;4.90;2.40;;;;;;;29.27;37.86;99064.66;5061938;28;20055;-88
2023/06/15 09:34:08;;;;;;;4.40;3.33;;;;;;;29.76;37.20;99085.84;5051645;28;20028;-94
2023/06/15 09:36:48;;;;;;;14.23;10.75;;;;;;;29.77;37.59;99092.19;5047619;28;20092;-95
2023/06/15 09:39:16;;;;;;;5.18;3.75;;;;;;;29.67;38.16;99068.03;5031384;28;20492;-96
2023/06/15 09:42:02;;;;;;;7.00;3.60;;;;;;;29.61;40.11;99071.22;5028802;28;20147;-96
2023/06/15 09:44:28;;;;;;;8.60;4.05;;;;;;;29.76;39.67;99060.06;4995752;28;20029;-96
2023/06/15 09:47:07;;;;;;;5.05;3.40;;;;;;;29.44;38.78;99052.69;5007839;28;20029;-94
2023/06/15 09:49:36;;;;;;;5.25;3.53;;;;;;;29.34;38.57;99056.28;5161244;23;20056;-93
2023/06/15 09:52:01;;;;;;;4.78;2.80;;;;;;;29.40;37.92;99068.56;5050588;28;20024;-95
2023/06/15 09:54:33;;;;;;;12.90;8.10;;;;;;;29.37;38.14;99055.50;5040074;28;20012;-96
2023/06/15 09:57:02;;;;;;;5.80;3.50;;;;;;;29.49;37.83;99045.91;5057103;28;20512;-96
2023/06/15 09:59:28;;;;;;;6.05;4.30;;;;;;;29.70;37.83;99064.44;5088460;28;20037;-95
2023/06/15 10:02:03;;;;;;;3.83;2.63;;;;;;;29.52;39.10;99043.13;5031009;28;20403;-96
2023/06/15 10:04:32;;;;;;;4.68;2.70;;;;;;;29.37;40.16;99052.72;5050761;28;20384;-87
2023/06/15 10:07:01;;;;;;;3.58;2.67;;;;;;;29.37;40.96;99052.72;5095353;28;20398;-88
2023/06/15 10:09:29;;;;;;;5.07;2.75;;;;;;;29.24;42.01;99057.13;5044966;28;20049;-88
2023/06/15 10:12:27;;;;;;;7.85;2.90;;;;;;;29.23;42.49;99072.97;5045299;28;20028;-87
2023/06/15 10:15:15;;;;;;;5.13;2.83;;;;;;;29.07;42.13;99067.06;5047217;28;20029;-86
2023/06/15 10:17:56;;;;;;;6.32;2.80;;;;;;;28.81;42.07;99046.97;5004940;28;20033;-90
2023/06/15 10:20:23;;;;;;;4.30;2.60;;;;;;;28.62;44.94;99064.81;4991432;28;20038;-86
2023/06/15 10:23:02;;;;;;;5.30;2.90;;;;;;;28.24;47.46;99028.41;4996661;28;20714;-87
2023/06/15 10:25:28;;;;;;;6.65;3.67;;;;;;;28.13;51.13;99030.38;5006792;28;20037;-87
2023/06/15 10:27:54;;;;;;;7.35;4.32;;;;;;;27.83;50.97;99037.06;4982097;28;20038;-90
2023/06/15 10:30:50;;;;;;;7.22;3.50;;;;;;;27.92;53.78;99051.31;4995495;28;20048;-90
2023/06/15 10:33:45;;;;;;;4.40;3.38;;;;;;;27.67;50.49;99033.88;5021365;28;20054;-89
2023/06/15 10:37:08;;;;;;;5.10;3.25;;;;;;;27.70;49.08;99039.41;5015433;28;20056;-90
2023/06/15 10:39:39;;;;;;;4.43;3.10;;;;;;;27.72;44.35;99023.19;4977020;28;20103;-88
2023/06/15 10:42:08;;;;;;;3.78;3.22;;;;;;;27.96;46.05;99026.44;5012447;28;20124;-89
2023/06/15 10:44:34;;;;;;;4.82;2.97;;;;;;;28.15;50.66;99016.94;4999790;28;20033;-86
2023/06/15 10:47:12;;;;;;;3.75;2.80;;;;;;;27.71;51.97;99004.25;4996689;28;20033;-89
2023/06/15 10:49:48;;;;;;;4.90;3.08;;;;;;;27.92;51.68;99033.94;5033200;28;20048;-89
2023/06/15 10:52:17;;;;;;;4.15;3.13;;;;;;;27.84;50.21;99027.56;5036042;28;20060;-89
2023/06/15 10:54:42;;;;;;;3.88;3.00;;;;;;;27.66;47.75;99015.69;5051138;28;20106;-90
2023/06/15 10:57:08;;;;;;;3.40;3.00;;;;;;;27.79;48.38;99006.63;5092649;28;20103;-89
2023/06/15 11:00:30;;;;;;;7.00;3.30;;;;;;;28.13;45.14;99020.09;5057321;28;20029;-88
2023/06/15 11:03:30;;;;;;;4.15;2.70;;;;;;;28.53;46.41;99022.84;4936292;28;20023;-90
2023/06/15 11:06:07;;;;;;;3.60;3.00;;;;;;;28.36;45.76;99024.44;4944249;28;20038;-89
2023/06/15 11:11:48;;;;;;;5.32;2.90;;;;;;;28.27;42.59;98994.38;4966395;28;20516;-89
2023/06/15 11:14:19;;;;;;;4.78;2.90;;;;;;;28.46;42.22;99011.78;4932427;28;20030;-88
2023/06/15 11:17:00;;;;;;;4.97;3.05;;;;;;;28.62;42.57;99006.63;5001690;28;20368;-89
2023/06/15 11:19:29;;;;;;;19.40;12.23;;;;;;;28.53;43.16;98987.63;5040491;28;20093;-89
2023/06/15 11:22:04;;;;;;;14.68;10.85;;;;;;;29.04;42.17;99016.00;5050888;28;20043;-89
2023/06/15 11:24:41;;;;;;;12.10;4.80;;;;;;;28.98;42.32;98990.66;5048613;28;20031;-94
2023/06/15 11:27:13;;;;;;;7.30;3.13;;;;;;;29.29;42.72;98993.72;5034020;28;20628;-86
2023/06/15 11:29:56;;;;;;;5.18;3.85;;;;;;;29.62;43.14;99022.06;5032892;28;20039;-87
2023/06/15 11:32:28;;;;;;;3.63;2.47;;;;;;;29.82;39.56;99005.69;5049798;28;21020;-87
2023/06/15 11:35:13;;;;;;;8.07;2.95;;;;;;;30.05;38.55;99001.56;5056330;28;20021;-93
2023/06/15 11:37:41;;;;;;;6.50;2.95;;;;;;;30.14;38.34;99002.69;5049030;28;20036;-93
2023/06/15 11:40:08;;;;;;;5.20;2.97;;;;;;;29.72;39.06;98995.47;5090332;28;20031;-92
2023/06/15 11:42:40;;;;;;;3.92;2.70;;;;;;;29.70;39.12;98997.84;5055423;28;20103;-92
2023/06/15 11:45:09;;;;;;;4.93;2.30;;;;;;;29.78;37.99;99010.47;5046314;28;20017;-94
2023/06/15 11:47:37;;;;;;;6.22;2.85;;;;;;;29.52;39.55;98995.19;5030008;28;20104;-94
2023/06/15 11:50:04;;;;;;;2.92;2.20;;;;;;;29.48;38.03;98994.41;5032978;28;20525;-92